TimeEDT,TemperatureF,Dew PointF,Humidity,Sea Level PressureIn,VisibilityMPH,Wind Direction,Wind SpeedMPH,Gust SpeedMPH,PrecipitationIn,Events,Conditions,WindDirDegrees,DateUTC
12:53 AM,73.0,69.1,87,29.96,10.0,Calm,Calm,-,0.01,,Clear,0,2013-05-23 04:53:00
1:53 AM,72.0,68.0,87,29.95,10.0,Calm,Calm,-,N/A,,Clear,0,2013-05-23 05:53:00
2:53 AM,71.1,66.9,87,29.95,9.0,Calm,Calm,-,N/A,,Clear,0,2013-05-23 06:53:00
3:53 AM,69.1,66.0,90,29.95,8.0,Calm,Calm,-,N/A,,Clear,0,2013-05-23 07:53:00
4:23 AM,69.8,66.2,88,29.96,1.8,Calm,Calm,-,N/A,,Clear,0,2013-05-23 08:23:00
4:34 AM,69.8,66.2,88,29.96,3.0,Calm,Calm,-,N/A,,Clear,0,2013-05-23 08:34:00
4:53 AM,69.1,66.0,90,29.97,10.0,Calm,Calm,-,N/A,,Clear,0,2013-05-23 08:53:00
5:53 AM,69.1,64.9,87,29.98,10.0,Calm,Calm,-,N/A,,Scattered Clouds,0,2013-05-23 09:53:00
6:53 AM,71.1,66.9,87,29.99,10.0,Calm,Calm,-,0.01,,Scattered Clouds,0,2013-05-23 10:53:00
7:53 AM,72.0,68.0,87,29.97,10.0,South,3.5,-,N/A,,Clear,190,2013-05-23 11:53:00
8:53 AM,75.9,66.0,71,29.99,10.0,Calm,Calm,-,N/A,,Clear,0,2013-05-23 12:53:00
9:53 AM,80.1,66.0,62,29.98,10.0,SW,8.1,-,N/A,,Clear,230,2013-05-23 13:53:00
10:53 AM,82.9,66.0,56,29.98,10.0,West,6.9,-,N/A,,Clear,270,2013-05-23 14:53:00
11:53 AM,84.9,68.0,57,29.99,10.0,Variable,3.5,-,N/A,,Partly Cloudy,0,2013-05-23 15:53:00
12:53 PM,86.0,66.0,51,29.99,10.0,NNW,10.4,-,N/A,,Scattered Clouds,340,2013-05-23 16:53:00
1:53 PM,88.0,64.9,46,29.97,10.0,NNW,6.9,-,N/A,,Partly Cloudy,330,2013-05-23 17:53:00
2:53 PM,84.9,69.1,59,29.96,10.0,SSE,8.1,-,N/A,,Mostly Cloudy,150,2013-05-23 18:53:00
3:53 PM,84.0,68.0,58,29.94,10.0,East,9.2,-,N/A,,Mostly Cloudy,90,2013-05-23 19:53:00
4:53 PM,84.0,68.0,58,29.93,10.0,SE,8.1,-,N/A,,Partly Cloudy,140,2013-05-23 20:53:00
5:53 PM,84.0,69.1,61,29.91,10.0,SSE,6.9,-,N/A,,Scattered Clouds,160,2013-05-23 21:53:00
6:53 PM,84.0,68.0,58,29.92,10.0,SSE,5.8,-,N/A,,Clear,160,2013-05-23 22:53:00
7:53 PM,82.0,69.1,65,29.93,10.0,SE,5.8,-,N/A,,Mostly Cloudy,140,2013-05-23 23:53:00
8:53 PM,79.0,69.1,72,29.95,10.0,Calm,Calm,-,N/A,,Clear,0,2013-05-24 00:53:00
9:53 PM,75.9,69.1,79,29.98,10.0,Variable,3.5,-,N/A,,Clear,0,2013-05-24 01:53:00
10:53 PM,75.0,69.1,82,29.98,10.0,Calm,Calm,-,N/A,,Clear,0,2013-05-24 02:53:00
11:53 PM,73.0,66.9,81,29.98,10.0,Calm,Calm,-,N/A,,Clear,0,2013-05-24 03:53:00